sensor_id;sensor_type;location;lat;lon;timestamp;pressure;altitude;pressure_sealevel;temperature;humidity
31239;BME280;17871;31.584;74.450;2023-04-25T00:01:49;98393.66;;;24.84;50.92
31239;BME280;17871;31.584;74.450;2023-04-25T00:04:20;98399.50;;;24.89;50.96
31239;BME280;17871;31.584;74.450;2023-04-25T00:06:50;98401.63;;;24.80;50.72
31239;BME280;17871;31.584;74.450;2023-04-25T00:09:20;98411.31;;;24.61;51.47
31239;BME280;17871;31.584;74.450;2023-04-25T00:11:50;98409.91;;;24.54;51.49
31239;BME280;17871;31.584;74.450;2023-04-25T00:14:19;98421.41;;;24.50;52.35
31239;BME280;17871;31.584;74.450;2023-04-25T00:16:48;98423.75;;;24.56;51.40
31239;BME280;17871;31.584;74.450;2023-04-25T00:19:20;98428.69;;;24.62;51.92
31239;BME280;17871;31.584;74.450;2023-04-25T00:21:50;98434.38;;;24.53;51.94
31239;BME280;17871;31.584;74.450;2023-04-25T00:24:19;98436.03;;;24.54;52.44
31239;BME280;17871;31.584;74.450;2023-04-25T00:26:48;98439.84;;;24.47;52.42
31239;BME280;17871;31.584;74.450;2023-04-25T00:29:17;98444.03;;;24.51;52.30
31239;BME280;17871;31.584;74.450;2023-04-25T00:31:47;98446.63;;;24.51;52.46
31239;BME280;17871;31.584;74.450;2023-04-25T00:34:18;98446.56;;;24.53;52.28
31239;BME280;17871;31.584;74.450;2023-04-25T00:36:48;98448.78;;;24.43;52.78
31239;BME280;17871;31.584;74.450;2023-04-25T00:39:17;98442.84;;;24.40;52.58
31239;BME280;17871;31.584;74.450;2023-04-25T00:41:46;98438.59;;;24.37;53.17
31239;BME280;17871;31.584;74.450;2023-04-25T00:44:22;98444.53;;;24.41;53.20
31239;BME280;17871;31.584;74.450;2023-04-25T00:46:53;98446.09;;;24.45;53.46
31239;BME280;17871;31.584;74.450;2023-04-25T00:49:23;98435.69;;;24.26;53.98
31239;BME280;17871;31.584;74.450;2023-04-25T00:51:52;98438.75;;;24.34;52.88
31239;BME280;17871;31.584;74.450;2023-04-25T00:54:21;98453.66;;;24.32;53.59
31239;BME280;17871;31.584;74.450;2023-04-25T00:56:51;98451.09;;;24.31;53.52
31239;BME280;17871;31.584;74.450;2023-04-25T00:59:20;98467.84;;;24.45;52.94
31239;BME280;17871;31.584;74.450;2023-04-25T01:01:50;98473.13;;;24.44;53.35
31239;BME280;17871;31.584;74.450;2023-04-25T01:04:19;98462.09;;;24.20;53.63
31239;BME280;17871;31.584;74.450;2023-04-25T01:06:49;98468.34;;;24.35;54.14
31239;BME280;17871;31.584;74.450;2023-04-25T01:09:19;98466.13;;;24.44;53.39
31239;BME280;17871;31.584;74.450;2023-04-25T01:11:48;98469.09;;;24.55;53.31
31239;BME280;17871;31.584;74.450;2023-04-25T01:14:20;98475.16;;;24.56;53.77
31239;BME280;17871;31.584;74.450;2023-04-25T01:16:49;98476.31;;;24.32;54.09
31239;BME280;17871;31.584;74.450;2023-04-25T01:19:19;98475.06;;;24.40;53.76
31239;BME280;17871;31.584;74.450;2023-04-25T01:21:50;98482.50;;;24.48;53.95
31239;BME280;17871;31.584;74.450;2023-04-25T01:24:19;98481.81;;;24.44;53.68
31239;BME280;17871;31.584;74.450;2023-04-25T01:26:49;98486.75;;;24.32;54.36
31239;BME280;17871;31.584;74.450;2023-04-25T01:29:23;98485.06;;;24.49;53.40
31239;BME280;17871;31.584;74.450;2023-04-25T01:31:54;98482.31;;;24.52;53.45
31239;BME280;17871;31.584;74.450;2023-04-25T01:34:23;98484.28;;;24.47;54.19
31239;BME280;17871;31.584;74.450;2023-04-25T01:36:53;98486.81;;;24.49;54.25
31239;BME280;17871;31.584;74.450;2023-04-25T01:39:23;98492.47;;;24.58;54.27
31239;BME280;17871;31.584;74.450;2023-04-25T01:41:52;98492.81;;;24.69;54.32
31239;BME280;17871;31.584;74.450;2023-04-25T01:44:24;98489.75;;;24.78;54.01
31239;BME280;17871;31.584;74.450;2023-04-25T01:46:54;98497.72;;;24.75;53.83
31239;BME280;17871;31.584;74.450;2023-04-25T01:49:23;98496.78;;;24.59;54.45
31239;BME280;17871;31.584;74.450;2023-04-25T01:51:52;98498.59;;;24.57;54.93
31239;BME280;17871;31.584;74.450;2023-04-25T01:54:22;98501.19;;;24.76;54.15
31239;BME280;17871;31.584;74.450;2023-04-25T01:56:51;98506.72;;;24.89;54.16
31239;BME280;17871;31.584;74.450;2023-04-25T01:59:21;98498.16;;;24.85;54.18
31239;BME280;17871;31.584;74.450;2023-04-25T02:01:59;98500.53;;;24.90;53.92
31239;BME280;17871;31.584;74.450;2023-04-25T02:04:34;98502.78;;;24.97;54.24
31239;BME280;17871;31.584;74.450;2023-04-25T02:07:04;98501.81;;;24.81;54.30
31239;BME280;17871;31.584;74.450;2023-04-25T02:09:44;98507.84;;;25.00;54.32
31239;BME280;17871;31.584;74.450;2023-04-25T02:12:16;98503.63;;;24.98;54.22
31239;BME280;17871;31.584;74.450;2023-04-25T02:14:54;98506.09;;;25.01;54.69
31239;BME280;17871;31.584;74.450;2023-04-25T02:17:48;98513.63;;;25.07;54.25
31239;BME280;17871;31.584;74.450;2023-04-25T02:20:17;98520.66;;;25.23;54.12
31239;BME280;17871;31.584;74.450;2023-04-25T02:22:49;98517.50;;;25.34;53.99
31239;BME280;17871;31.584;74.450;2023-04-25T02:25:21;98521.56;;;25.40;53.78
31239;BME280;17871;31.584;74.450;2023-04-25T02:27:50;98526.28;;;25.50;53.68
31239;BME280;17871;31.584;74.450;2023-04-25T02:30:20;98525.06;;;25.57;53.27
31239;BME280;17871;31.584;74.450;2023-04-25T02:32:51;98527.34;;;25.63;53.08
31239;BME280;17871;31.584;74.450;2023-04-25T02:35:21;98533.50;;;25.62;52.82
31239;BME280;17871;31.584;74.450;2023-04-25T02:37:53;98534.63;;;25.91;53.13
31239;BME280;17871;31.584;74.450;2023-04-25T02:40:23;98530.38;;;25.89;52.90
31239;BME280;17871;31.584;74.450;2023-04-25T02:42:53;98525.59;;;25.97;52.46
31239;BME280;17871;31.584;74.450;2023-04-25T02:45:26;98529.03;;;26.14;52.54
31239;BME280;17871;31.584;74.450;2023-04-25T02:47:55;98532.28;;;26.02;52.64
31239;BME280;17871;31.584;74.450;2023-04-25T02:50:25;98536.84;;;26.31;51.35
31239;BME280;17871;31.584;74.450;2023-04-25T02:52:54;98534.41;;;26.44;51.97
31239;BME280;17871;31.584;74.450;2023-04-25T02:55:28;98535.50;;;26.56;50.95
31239;BME280;17871;31.584;74.450;2023-04-25T02:58:00;98544.22;;;26.41;50.67
31239;BME280;17871;31.584;74.450;2023-04-25T03:00:39;98536.63;;;26.67;50.86
31239;BME280;17871;31.584;74.450;2023-04-25T03:03:08;98538.13;;;26.71;50.47
31239;BME280;17871;31.584;74.450;2023-04-25T03:05:37;98536.47;;;26.86;50.73
31239;BME280;17871;31.584;74.450;2023-04-25T03:08:07;98544.31;;;26.86;50.49
31239;BME280;17871;31.584;74.450;2023-04-25T03:10:38;98540.13;;;27.13;50.00
31239;BME280;17871;31.584;74.450;2023-04-25T03:13:09;98548.50;;;27.04;49.66
31239;BME280;17871;31.584;74.450;2023-04-25T03:15:41;98544.25;;;27.33;49.39
31239;BME280;17871;31.584;74.450;2023-04-25T03:18:10;98547.34;;;27.40;48.95
31239;BME280;17871;31.584;74.450;2023-04-25T03:20:40;98546.00;;;27.32;48.37
31239;BME280;17871;31.584;74.450;2023-04-25T03:23:11;98541.03;;;27.58;47.50
31239;BME280;17871;31.584;74.450;2023-04-25T03:25:42;98549.59;;;27.75;48.59
31239;BME280;17871;31.584;74.450;2023-04-25T03:28:11;98547.56;;;27.95;48.24
31239;BME280;17871;31.584;74.450;2023-04-25T03:30:40;98544.47;;;28.02;48.91
31239;BME280;17871;31.584;74.450;2023-04-25T03:33:10;98551.31;;;28.05;48.21
31239;BME280;17871;31.584;74.450;2023-04-25T03:35:39;98550.69;;;28.15;48.22
31239;BME280;17871;31.584;74.450;2023-04-25T03:38:08;98553.22;;;28.31;48.14
31239;BME280;17871;31.584;74.450;2023-04-25T03:40:39;98555.38;;;28.39;48.01
31239;BME280;17871;31.584;74.450;2023-04-25T03:43:28;98557.50;;;28.46;46.66
31239;BME280;17871;31.584;74.450;2023-04-25T03:46:03;98553.75;;;28.50;46.23
31239;BME280;17871;31.584;74.450;2023-04-25T03:48:32;98552.22;;;28.60;47.33
31239;BME280;17871;31.584;74.450;2023-04-25T03:51:02;98548.44;;;28.78;46.99
31239;BME280;17871;31.584;74.450;2023-04-25T03:53:38;98559.34;;;28.87;46.10
31239;BME280;17871;31.584;74.450;2023-04-25T03:56:39;98563.78;;;28.99;46.40
31239;BME280;17871;31.584;74.450;2023-04-25T03:59:17;98559.00;;;29.18;45.02
31239;BME280;17871;31.584;74.450;2023-04-25T04:01:46;98568.22;;;29.25;44.84
31239;BME280;17871;31.584;74.450;2023-04-25T04:04:15;98571.41;;;29.30;44.83
31239;BME280;17871;31.584;74.450;2023-04-25T04:06:45;98572.72;;;29.37;43.68
31239;BME280;17871;31.584;74.450;2023-04-25T04:09:19;98575.03;;;29.54;44.58
31239;BME280;17871;31.584;74.450;2023-04-25T04:11:49;98571.69;;;29.77;45.21
31239;BME280;17871;31.584;74.450;2023-04-25T04:14:18;98574.13;;;29.80;44.74
31239;BME280;17871;31.584;74.450;2023-04-25T04:16:51;98568.78;;;29.95;43.98
31239;BME280;17871;31.584;74.450;2023-04-25T04:19:21;98574.03;;;29.82;42.50
31239;BME280;17871;31.584;74.450;2023-04-25T04:22:00;98579.56;;;29.92;42.26
31239;BME280;17871;31.584;74.450;2023-04-25T04:24:29;98579.94;;;30.23;42.46
31239;BME280;17871;31.584;74.450;2023-04-25T04:27:06;98575.72;;;30.33;42.07
31239;BME280;17871;31.584;74.450;2023-04-25T04:29:55;98575.75;;;30.46;42.13
31239;BME280;17871;31.584;74.450;2023-04-25T04:32:29;98592.69;;;30.67;44.03
31239;BME280;17871;31.584;74.450;2023-04-25T04:34:59;98592.50;;;30.94;41.08
31239;BME280;17871;31.584;74.450;2023-04-25T04:37:28;98587.13;;;30.96;41.26
31239;BME280;17871;31.584;74.450;2023-04-25T04:39:59;98596.25;;;31.15;42.11
31239;BME280;17871;31.584;74.450;2023-04-25T04:42:43;98591.97;;;31.25;41.80
31239;BME280;17871;31.584;74.450;2023-04-25T04:45:21;98593.09;;;31.58;41.57
31239;BME280;17871;31.584;74.450;2023-04-25T04:48:08;98594.53;;;31.62;40.17
31239;BME280;17871;31.584;74.450;2023-04-25T04:51:09;98592.44;;;31.89;40.33
31239;BME280;17871;31.584;74.450;2023-04-25T04:53:54;98590.72;;;32.12;40.29
31239;BME280;17871;31.584;74.450;2023-04-25T04:56:50;98589.28;;;32.19;39.36
31239;BME280;17871;31.584;74.450;2023-04-25T04:59:36;98595.03;;;32.13;39.74
31239;BME280;17871;31.584;74.450;2023-04-25T05:02:23;98598.06;;;32.30;37.74
31239;BME280;17871;31.584;74.450;2023-04-25T05:05:24;98604.06;;;32.55;38.37
31239;BME280;17871;31.584;74.450;2023-04-25T05:08:13;98596.88;;;32.46;38.25
31239;BME280;17871;31.584;74.450;2023-04-25T05:11:01;98597.72;;;32.68;38.37
31239;BME280;17871;31.584;74.450;2023-04-25T05:13:36;98598.16;;;32.84;37.71
31239;BME280;17871;31.584;74.450;2023-04-25T05:16:25;98609.94;;;33.03;36.70
31239;BME280;17871;31.584;74.450;2023-04-25T05:19:16;98609.53;;;33.29;37.08
31239;BME280;17871;31.584;74.450;2023-04-25T05:22:21;98609.28;;;33.32;37.10
31239;BME280;17871;31.584;74.450;2023-04-25T05:25:10;98609.56;;;33.50;36.54
31239;BME280;17871;31.584;74.450;2023-04-25T05:27:58;98604.25;;;33.61;37.98
31239;BME280;17871;31.584;74.450;2023-04-25T05:30:39;98607.88;;;33.49;36.30
31239;BME280;17871;31.584;74.450;2023-04-25T05:33:27;98605.75;;;33.75;36.57
31239;BME280;17871;31.584;74.450;2023-04-25T05:35:56;98607.09;;;33.90;35.35
31239;BME280;17871;31.584;74.450;2023-04-25T05:38:27;98602.56;;;34.02;35.02
31239;BME280;17871;31.584;74.450;2023-04-25T05:41:11;98603.28;;;34.24;34.98
31239;BME280;17871;31.584;74.450;2023-04-25T05:44:02;98602.22;;;34.36;35.51
31239;BME280;17871;31.584;74.450;2023-04-25T05:46:38;98596.53;;;34.20;35.48
31239;BME280;17871;31.584;74.450;2023-04-25T05:49:27;98603.06;;;34.37;35.10
31239;BME280;17871;31.584;74.450;2023-04-25T05:52:17;98593.59;;;34.44;33.92
31239;BME280;17871;31.584;74.450;2023-04-25T05:54:50;98608.16;;;34.59;34.31
31239;BME280;17871;31.584;74.450;2023-04-25T05:57:23;98598.75;;;34.76;32.79
31239;BME280;17871;31.584;74.450;2023-04-25T05:59:55;98592.91;;;34.91;32.35
31239;BME280;17871;31.584;74.450;2023-04-25T06:02:39;98597.94;;;34.95;32.71
31239;BME280;17871;31.584;74.450;2023-04-25T06:05:12;98590.41;;;35.00;32.46
31239;BME280;17871;31.584;74.450;2023-04-25T06:07:42;98589.16;;;35.04;31.22
31239;BME280;17871;31.584;74.450;2023-04-25T06:10:12;98583.13;;;35.02;32.76
31239;BME280;17871;31.584;74.450;2023-04-25T06:12:42;98583.47;;;35.18;32.48
31239;BME280;17871;31.584;74.450;2023-04-25T06:15:12;98582.38;;;35.30;32.06
31239;BME280;17871;31.584;74.450;2023-04-25T06:17:55;98587.97;;;35.27;31.48
31239;BME280;17871;31.584;74.450;2023-04-25T06:20:25;98582.91;;;35.14;29.97
31239;BME280;17871;31.584;74.450;2023-04-25T06:22:57;98583.34;;;35.48;31.89
31239;BME280;17871;31.584;74.450;2023-04-25T06:26:04;98581.53;;;35.49;31.48
31239;BME280;17871;31.584;74.450;2023-04-25T06:32:50;98580.25;;;35.81;29.94
31239;BME280;17871;31.584;74.450;2023-04-25T06:35:20;98581.38;;;35.79;27.17
31239;BME280;17871;31.584;74.450;2023-04-25T06:37:49;98575.06;;;35.89;28.79
31239;BME280;17871;31.584;74.450;2023-04-25T06:40:23;98576.47;;;35.74;29.34
31239;BME280;17871;31.584;74.450;2023-04-25T06:42:52;98576.75;;;35.81;29.70
31239;BME280;17871;31.584;74.450;2023-04-25T06:46:00;98567.16;;;36.17;28.75
31239;BME280;17871;31.584;74.450;2023-04-25T06:48:32;98570.63;;;36.27;28.95
31239;BME280;17871;31.584;74.450;2023-04-25T06:51:01;98565.72;;;36.32;29.31
31239;BME280;17871;31.584;74.450;2023-04-25T06:53:30;98565.75;;;36.22;28.65
31239;BME280;17871;31.584;74.450;2023-04-25T06:56:02;98565.50;;;36.16;27.90
31239;BME280;17871;31.584;74.450;2023-04-25T06:58:50;98561.47;;;36.39;28.46
31239;BME280;17871;31.584;74.450;2023-04-25T07:01:24;98568.88;;;36.45;29.66
31239;BME280;17871;31.584;74.450;2023-04-25T07:03:54;98571.66;;;36.43;27.91
31239;BME280;17871;31.584;74.450;2023-04-25T07:06:24;98563.84;;;36.42;27.62
31239;BME280;17871;31.584;74.450;2023-04-25T07:08:55;98563.22;;;36.85;27.42
31239;BME280;17871;31.584;74.450;2023-04-25T07:11:24;98568.78;;;36.91;26.45
31239;BME280;17871;31.584;74.450;2023-04-25T07:13:54;98558.69;;;36.68;25.63
31239;BME280;17871;31.584;74.450;2023-04-25T07:16:23;98563.94;;;36.50;24.96
31239;BME280;17871;31.584;74.450;2023-04-25T07:18:53;98552.50;;;36.67;25.17
31239;BME280;17871;31.584;74.450;2023-04-25T07:21:22;98548.97;;;36.94;27.66
31239;BME280;17871;31.584;74.450;2023-04-25T07:23:51;98546.00;;;36.97;28.67
31239;BME280;17871;31.584;74.450;2023-04-25T07:26:26;98545.19;;;36.69;25.59
31239;BME280;17871;31.584;74.450;2023-04-25T07:29:15;98542.19;;;37.00;26.50
31239;BME280;17871;31.584;74.450;2023-04-25T07:31:45;98540.28;;;36.74;26.05
31239;BME280;17871;31.584;74.450;2023-04-25T07:34:14;98535.41;;;36.87;26.88
31239;BME280;17871;31.584;74.450;2023-04-25T07:36:44;98535.00;;;37.10;26.67
31239;BME280;17871;31.584;74.450;2023-04-25T07:39:13;98534.38;;;37.16;25.10
31239;BME280;17871;31.584;74.450;2023-04-25T07:41:43;98535.66;;;37.12;25.06
31239;BME280;17871;31.584;74.450;2023-04-25T07:44:19;98530.34;;;37.12;26.13
31239;BME280;17871;31.584;74.450;2023-04-25T07:46:48;98528.75;;;36.47;25.06
31239;BME280;17871;31.584;74.450;2023-04-25T07:49:23;98529.06;;;36.88;25.59
31239;BME280;17871;31.584;74.450;2023-04-25T07:51:53;98523.34;;;37.11;25.09
31239;BME280;17871;31.584;74.450;2023-04-25T07:54:23;98523.28;;;37.20;24.67
31239;BME280;17871;31.584;74.450;2023-04-25T07:56:58;98513.63;;;36.74;23.75
31239;BME280;17871;31.584;74.450;2023-04-25T07:59:30;98507.94;;;36.87;24.34
31239;BME280;17871;31.584;74.450;2023-04-25T08:02:01;98510.78;;;37.03;23.71
31239;BME280;17871;31.584;74.450;2023-04-25T08:04:31;98512.88;;;37.35;25.66
31239;BME280;17871;31.584;74.450;2023-04-25T08:07:06;98510.91;;;37.37;24.35
31239;BME280;17871;31.584;74.450;2023-04-25T08:09:51;98500.47;;;37.43;25.24
31239;BME280;17871;31.584;74.450;2023-04-25T08:12:31;98495.22;;;37.34;23.92
31239;BME280;17871;31.584;74.450;2023-04-25T08:15:01;98497.63;;;37.45;25.20
31239;BME280;17871;31.584;74.450;2023-04-25T08:17:34;98488.22;;;37.51;24.16
31239;BME280;17871;31.584;74.450;2023-04-25T08:20:06;98487.94;;;37.62;25.28
31239;BME280;17871;31.584;74.450;2023-04-25T08:22:35;98482.78;;;37.60;24.35
31239;BME280;17871;31.584;74.450;2023-04-25T08:25:22;98482.69;;;37.52;24.23
31239;BME280;17871;31.584;74.450;2023-04-25T08:27:52;98475.44;;;37.62;24.89
31239;BME280;17871;31.584;74.450;2023-04-25T08:30:22;98472.34;;;37.49;24.45
31239;BME280;17871;31.584;74.450;2023-04-25T08:32:52;98472.94;;;37.43;23.69
31239;BME280;17871;31.584;74.450;2023-04-25T08:35:38;98469.00;;;37.47;24.34
31239;BME280;17871;31.584;74.450;2023-04-25T08:38:08;98464.09;;;37.60;23.49
31239;BME280;17871;31.584;74.450;2023-04-25T08:40:39;98460.41;;;37.61;23.71
31239;BME280;17871;31.584;74.450;2023-04-25T08:43:18;98450.34;;;37.29;23.50
31239;BME280;17871;31.584;74.450;2023-04-25T08:45:48;98441.47;;;37.21;23.34
31239;BME280;17871;31.584;74.450;2023-04-25T08:48:33;98436.78;;;37.66;23.65
31239;BME280;17871;31.584;74.450;2023-04-25T08:51:07;98444.31;;;37.71;23.50
31239;BME280;17871;31.584;74.450;2023-04-25T08:53:43;98440.09;;;37.42;23.02
31239;BME280;17871;31.584;74.450;2023-04-25T08:56:22;98424.72;;;37.54;22.72
31239;BME280;17871;31.584;74.450;2023-04-25T08:58:51;98425.13;;;37.67;22.71
31239;BME280;17871;31.584;74.450;2023-04-25T09:01:21;98423.78;;;37.71;24.44
31239;BME280;17871;31.584;74.450;2023-04-25T09:03:53;98416.56;;;37.38;22.63
31239;BME280;17871;31.584;74.450;2023-04-25T09:10:36;98394.94;;;37.67;23.41
31239;BME280;17871;31.584;74.450;2023-04-25T09:13:11;98394.81;;;37.76;23.85
31239;BME280;17871;31.584;74.450;2023-04-25T09:16:03;98387.06;;;37.65;22.64
31239;BME280;17871;31.584;74.450;2023-04-25T09:23:19;98377.69;;;37.53;22.08
31239;BME280;17871;31.584;74.450;2023-04-25T09:25:53;98368.78;;;37.70;23.01
31239;BME280;17871;31.584;74.450;2023-04-25T09:28:26;98374.66;;;37.48;22.92
31239;BME280;17871;31.584;74.450;2023-04-25T09:31:01;98377.69;;;37.53;23.09
31239;BME280;17871;31.584;74.450;2023-04-25T09:33:44;98367.75;;;37.63;22.06
31239;BME280;17871;31.584;74.450;2023-04-25T09:36:15;98373.28;;;37.44;22.44
31239;BME280;17871;31.584;74.450;2023-04-25T09:38:59;98361.91;;;37.42;24.42
31239;BME280;17871;31.584;74.450;2023-04-25T09:41:37;98359.47;;;37.49;23.83
31239;BME280;17871;31.584;74.450;2023-04-25T09:44:08;98361.50;;;37.47;23.08
31239;BME280;17871;31.584;74.450;2023-04-25T09:46:37;98355.72;;;37.33;23.11
31239;BME280;17871;31.584;74.450;2023-04-25T09:49:20;98355.66;;;37.51;22.70
31239;BME280;17871;31.584;74.450;2023-04-25T09:52:02;98349.19;;;37.28;22.67
31239;BME280;17871;31.584;74.450;2023-04-25T09:54:45;98349.13;;;37.20;22.06
31239;BME280;17871;31.584;74.450;2023-04-25T09:57:19;98340.56;;;37.34;22.91
31239;BME280;17871;31.584;74.450;2023-04-25T09:59:54;98337.50;;;37.29;22.71
31239;BME280;17871;31.584;74.450;2023-04-25T10:02:28;98327.50;;;37.23;23.29
31239;BME280;17871;31.584;74.450;2023-04-25T10:05:06;98328.59;;;37.12;23.64
31239;BME280;17871;31.584;74.450;2023-04-25T10:07:40;98321.59;;;37.11;23.25
31239;BME280;17871;31.584;74.450;2023-04-25T10:10:14;98316.22;;;37.03;22.87
31239;BME280;17871;31.584;74.450;2023-04-25T10:12:44;98311.47;;;36.97;22.88
31239;BME280;17871;31.584;74.450;2023-04-25T10:15:15;98308.44;;;36.92;22.93
31239;BME280;17871;31.584;74.450;2023-04-25T10:17:44;98304.97;;;36.91;22.80
31239;BME280;17871;31.584;74.450;2023-04-25T10:20:14;98302.91;;;36.85;23.02
31239;BME280;17871;31.584;74.450;2023-04-25T10:22:45;98305.09;;;36.64;22.78
31239;BME280;17871;31.584;74.450;2023-04-25T10:25:17;98298.69;;;36.75;22.37
31239;BME280;17871;31.584;74.450;2023-04-25T10:27:46;98296.38;;;36.80;23.05
31239;BME280;17871;31.584;74.450;2023-04-25T10:30:15;98291.88;;;36.80;22.61
31239;BME280;17871;31.584;74.450;2023-04-25T10:32:45;98280.03;;;36.75;23.11
31239;BME280;17871;31.584;74.450;2023-04-25T10:35:16;98284.88;;;36.79;23.12
31239;BME280;17871;31.584;74.450;2023-04-25T10:38:11;98280.66;;;36.95;23.07
31239;BME280;17871;31.584;74.450;2023-04-25T10:40:41;98272.59;;;36.86;22.85
31239;BME280;17871;31.584;74.450;2023-04-25T10:46:01;98277.50;;;36.73;23.33
31239;BME280;17871;31.584;74.450;2023-04-25T10:48:31;98275.03;;;36.72;23.13
31239;BME280;17871;31.584;74.450;2023-04-25T10:51:16;98269.59;;;36.81;24.28
31239;BME280;17871;31.584;74.450;2023-04-25T10:56:37;98271.66;;;36.70;22.92
31239;BME280;17871;31.584;74.450;2023-04-25T11:01:42;98264.38;;;36.72;21.91
31239;BME280;17871;31.584;74.450;2023-04-25T11:04:34;98264.38;;;36.72;23.96
31239;BME280;17871;31.584;74.450;2023-04-25T11:07:10;98251.41;;;36.77;23.90
31239;BME280;17871;31.584;74.450;2023-04-25T11:09:45;98252.56;;;36.74;23.88
31239;BME280;17871;31.584;74.450;2023-04-25T11:12:14;98257.56;;;36.77;24.21
31239;BME280;17871;31.584;74.450;2023-04-25T11:14:45;98254.53;;;36.72;24.91
31239;BME280;17871;31.584;74.450;2023-04-25T11:17:14;98246.72;;;36.71;23.60
31239;BME280;17871;31.584;74.450;2023-04-25T11:19:43;98244.72;;;36.73;23.54
31239;BME280;17871;31.584;74.450;2023-04-25T11:22:12;98247.03;;;36.68;22.76
31239;BME280;17871;31.584;74.450;2023-04-25T11:24:41;98245.72;;;36.72;24.06
31239;BME280;17871;31.584;74.450;2023-04-25T11:27:11;98249.19;;;36.72;23.09
31239;BME280;17871;31.584;74.450;2023-04-25T11:29:41;98241.06;;;36.74;23.21
31239;BME280;17871;31.584;74.450;2023-04-25T11:32:10;98239.59;;;36.54;23.61
31239;BME280;17871;31.584;74.450;2023-04-25T11:34:39;98242.13;;;36.55;25.28
31239;BME280;17871;31.584;74.450;2023-04-25T11:37:08;98231.16;;;36.58;24.75
31239;BME280;17871;31.584;74.450;2023-04-25T11:39:37;98230.06;;;36.51;24.24
31239;BME280;17871;31.584;74.450;2023-04-25T11:42:06;98227.97;;;36.55;24.74
31239;BME280;17871;31.584;74.450;2023-04-25T11:44:40;98222.75;;;36.53;23.25
31239;BME280;17871;31.584;74.450;2023-04-25T11:47:09;98227.22;;;36.53;24.90
31239;BME280;17871;31.584;74.450;2023-04-25T11:49:38;98224.00;;;36.59;24.95
31239;BME280;17871;31.584;74.450;2023-04-25T11:52:07;98219.13;;;36.54;24.47
31239;BME280;17871;31.584;74.450;2023-04-25T11:54:37;98215.63;;;36.54;23.45
31239;BME280;17871;31.584;74.450;2023-04-25T11:57:06;98221.09;;;36.52;23.25
31239;BME280;17871;31.584;74.450;2023-04-25T11:59:35;98221.25;;;36.33;23.38
31239;BME280;17871;31.584;74.450;2023-04-25T12:02:04;98223.03;;;36.24;23.65
31239;BME280;17871;31.584;74.450;2023-04-25T12:04:35;98216.16;;;36.39;24.25
31239;BME280;17871;31.584;74.450;2023-04-25T12:07:05;98220.06;;;36.10;23.30
31239;BME280;17871;31.584;74.450;2023-04-25T12:09:38;98217.56;;;36.26;23.11
31239;BME280;17871;31.584;74.450;2023-04-25T12:12:09;98217.47;;;36.35;24.07
31239;BME280;17871;31.584;74.450;2023-04-25T12:14:39;98207.94;;;36.33;24.71
31239;BME280;17871;31.584;74.450;2023-04-25T12:17:09;98214.22;;;36.24;25.12
31239;BME280;17871;31.584;74.450;2023-04-25T12:19:39;98207.84;;;35.99;24.49
31239;BME280;17871;31.584;74.450;2023-04-25T12:22:23;98209.72;;;36.07;24.03
31239;BME280;17871;31.584;74.450;2023-04-25T12:24:53;98207.59;;;35.92;24.51
31239;BME280;17871;31.584;74.450;2023-04-25T12:27:25;98210.19;;;35.84;24.84
31239;BME280;17871;31.584;74.450;2023-04-25T12:29:56;98217.31;;;35.66;24.81
31239;BME280;17871;31.584;74.450;2023-04-25T12:32:26;98210.47;;;35.64;24.58
31239;BME280;17871;31.584;74.450;2023-04-25T12:34:56;98213.09;;;35.46;23.68
31239;BME280;17871;31.584;74.450;2023-04-25T12:37:25;98213.94;;;35.47;23.53
31239;BME280;17871;31.584;74.450;2023-04-25T12:39:54;98206.59;;;35.31;24.53
31239;BME280;17871;31.584;74.450;2023-04-25T12:42:23;98213.16;;;35.36;24.63
31239;BME280;17871;31.584;74.450;2023-04-25T12:44:52;98205.22;;;35.27;24.37
31239;BME280;17871;31.584;74.450;2023-04-25T12:47:24;98207.44;;;35.31;24.42
31239;BME280;17871;31.584;74.450;2023-04-25T12:49:54;98208.03;;;35.25;25.33
31239;BME280;17871;31.584;74.450;2023-04-25T12:52:23;98214.22;;;35.16;25.33
31239;BME280;17871;31.584;74.450;2023-04-25T12:54:52;98209.34;;;35.12;25.52
31239;BME280;17871;31.584;74.450;2023-04-25T12:57:22;98205.47;;;34.97;25.99
31239;BME280;17871;31.584;74.450;2023-04-25T12:59:51;98211.22;;;34.92;26.17
31239;BME280;17871;31.584;74.450;2023-04-25T13:02:20;98202.16;;;34.85;26.46
31239;BME280;17871;31.584;74.450;2023-04-25T13:04:50;98210.41;;;34.82;26.54
31239;BME280;17871;31.584;74.450;2023-04-25T13:07:20;98206.28;;;34.70;26.42
31239;BME280;17871;31.584;74.450;2023-04-25T13:09:49;98212.31;;;34.62;26.70
31239;BME280;17871;31.584;74.450;2023-04-25T13:12:18;98215.78;;;34.53;27.20
31239;BME280;17871;31.584;74.450;2023-04-25T13:14:47;98214.00;;;34.44;27.12
31239;BME280;17871;31.584;74.450;2023-04-25T13:17:16;98218.22;;;34.37;27.06
31239;BME280;17871;31.584;74.450;2023-04-25T13:19:45;98212.75;;;34.29;27.10
31239;BME280;17871;31.584;74.450;2023-04-25T13:22:14;98215.00;;;34.24;27.52
31239;BME280;17871;31.584;74.450;2023-04-25T13:24:45;98224.50;;;34.17;27.53
31239;BME280;17871;31.584;74.450;2023-04-25T13:27:15;98221.69;;;34.09;28.39
31239;BME280;17871;31.584;74.450;2023-04-25T13:29:44;98220.88;;;33.99;28.89
31239;BME280;17871;31.584;74.450;2023-04-25T13:32:13;98215.53;;;33.89;29.69
31239;BME280;17871;31.584;74.450;2023-04-25T13:34:43;98229.34;;;33.83;28.51
31239;BME280;17871;31.584;74.450;2023-04-25T13:37:12;98225.56;;;33.76;29.28
31239;BME280;17871;31.584;74.450;2023-04-25T13:39:41;98230.31;;;33.72;28.49
31239;BME280;17871;31.584;74.450;2023-04-25T13:42:10;98227.53;;;33.64;28.94
31239;BME280;17871;31.584;74.450;2023-04-25T13:44:40;98233.94;;;33.62;28.89